createdAt,value
2023-04-18T00:01:39.381Z,8.95
2023-04-18T00:04:08.086Z,9.85
2023-04-18T00:09:04.827Z,9.93
2023-04-18T00:11:32.220Z,10.13
2023-04-18T00:13:59.644Z,10.07
2023-04-18T00:16:28.173Z,9.65
2023-04-18T00:18:57.134Z,9.68
2023-04-18T00:21:25.533Z,9.30
2023-04-18T00:23:52.967Z,8.90
2023-04-18T00:26:21.685Z,8.57
2023-04-18T00:28:49.465Z,8.77
2023-04-18T00:31:18.232Z,8.82
2023-04-18T00:33:45.648Z,9.20
2023-04-18T00:36:13.040Z,8.40
2023-04-18T00:38:42.338Z,8.43
2023-04-18T00:41:09.840Z,8.30
2023-04-18T00:43:38.606Z,8.40
2023-04-18T00:46:06.714Z,8.65
2023-04-18T00:48:34.567Z,8.30
2023-04-18T00:51:02.387Z,8.32
2023-04-18T00:53:30.128Z,8.02
2023-04-18T00:55:57.717Z,9.02
2023-04-18T00:58:25.617Z,7.60
2023-04-18T01:03:24.540Z,7.85
2023-04-18T01:05:52.431Z,7.93
2023-04-18T01:08:20.254Z,6.88
2023-04-18T01:13:18.646Z,7.82
2023-04-18T01:15:46.996Z,7.93
2023-04-18T01:18:17.054Z,8.15
2023-04-18T01:20:53.055Z,7.70
2023-04-18T01:23:21.584Z,7.18
2023-04-18T01:25:50.964Z,6.93
2023-04-18T01:28:21.149Z,7.07
2023-04-18T01:30:52.664Z,6.75
2023-04-18T01:33:22.744Z,7.60
2023-04-18T01:35:50.270Z,7.22
2023-04-18T01:38:18.433Z,7.63
2023-04-18T01:40:50.049Z,7.00
2023-04-18T01:43:22.061Z,7.45
2023-04-18T01:45:49.694Z,6.72
2023-04-18T01:48:17.249Z,7.03
2023-04-18T01:50:44.834Z,6.78
2023-04-18T01:53:13.610Z,6.32
2023-04-18T01:55:44.328Z,6.63
2023-04-18T01:58:23.206Z,7.82
2023-04-18T02:00:52.271Z,7.30
2023-04-18T02:03:29.468Z,7.75
2023-04-18T02:05:57.396Z,6.53
2023-04-18T02:10:52.108Z,6.88
2023-04-18T02:13:25.421Z,6.18
2023-04-18T02:15:52.959Z,7.43
2023-04-18T02:18:21.953Z,7.43
2023-04-18T02:20:52.206Z,6.95
2023-04-18T02:23:19.921Z,7.63
2023-04-18T02:25:51.196Z,7.38
2023-04-18T02:28:19.186Z,8.38
2023-04-18T02:30:48.359Z,7.15
2023-04-18T02:33:17.741Z,6.97
2023-04-18T02:35:47.405Z,8.57
2023-04-18T02:38:18.359Z,7.07
2023-04-18T02:43:15.349Z,7.28
2023-04-18T02:45:50.611Z,7.35
2023-04-18T02:48:21.290Z,6.25
2023-04-18T02:50:48.920Z,6.82
2023-04-18T02:53:18.963Z,7.53
2023-04-18T02:55:57.451Z,6.80
2023-04-18T02:58:34.725Z,7.85
2023-04-18T03:01:23.795Z,7.30
2023-04-18T03:04:08.668Z,6.95
2023-04-18T03:06:40.256Z,8.05
2023-04-18T03:09:09.971Z,7.25
2023-04-18T03:11:42.842Z,8.35
2023-04-18T03:14:10.510Z,8.13
2023-04-18T03:16:48.773Z,7.60
2023-04-18T03:19:23.153Z,6.85
2023-04-18T03:21:52.562Z,7.60
2023-04-18T03:24:20.106Z,7.50
2023-04-18T03:26:51.467Z,7.72
2023-04-18T03:29:21.868Z,7.80
2023-04-18T03:31:53.345Z,8.27
2023-04-18T03:34:20.866Z,8.43
2023-04-18T03:36:48.429Z,8.60
2023-04-18T03:39:17.386Z,8.02
2023-04-18T03:41:47.168Z,8.63
2023-04-18T03:44:15.133Z,9.07
2023-04-18T03:49:20.072Z,8.68
2023-04-18T03:51:48.533Z,8.63
2023-04-18T03:54:18.034Z,8.23
2023-04-18T03:56:45.569Z,10.48
2023-04-18T03:59:16.785Z,8.48
2023-04-18T04:01:54.711Z,10.35
2023-04-18T04:04:24.017Z,9.82
2023-04-18T04:06:54.180Z,10.05
2023-04-18T04:09:21.690Z,10.68
2023-04-18T04:11:51.324Z,9.73
2023-04-18T04:14:22.729Z,10.25
2023-04-18T04:16:50.294Z,11.13
2023-04-18T04:19:18.214Z,9.80
2023-04-18T04:21:58.249Z,10.75
2023-04-18T04:24:25.894Z,11.05
2023-04-18T04:26:54.112Z,10.32
2023-04-18T04:29:31.607Z,10.95
2023-04-18T04:32:00.163Z,11.88
2023-04-18T04:34:34.297Z,11.07
2023-04-18T04:37:08.191Z,10.98
2023-04-18T04:39:47.628Z,11.48
2023-04-18T04:42:51.743Z,11.68
2023-04-18T04:45:30.951Z,10.95
2023-04-18T04:48:00.882Z,10.93
2023-04-18T04:50:28.650Z,10.13
2023-04-18T04:52:57.420Z,10.60
2023-04-18T04:55:25.351Z,10.90
2023-04-18T04:57:53.382Z,10.95
2023-04-18T05:00:35.553Z,11.38
2023-04-18T05:03:03.801Z,11.18
2023-04-18T05:05:31.677Z,10.27
2023-04-18T05:08:03.473Z,10.13
2023-04-18T05:10:31.229Z,10.13
2023-04-18T05:12:58.854Z,12.25
2023-04-18T05:15:31.727Z,9.32
2023-04-18T05:17:59.681Z,9.57
2023-04-18T05:20:27.097Z,11.35
2023-04-18T05:22:54.783Z,10.00
2023-04-18T05:25:23.644Z,10.10
2023-04-18T05:27:51.600Z,10.02
2023-04-18T05:32:48.637Z,9.45
2023-04-18T05:35:18.527Z,9.45
2023-04-18T05:37:47.410Z,10.43
2023-04-18T05:40:22.181Z,8.88
2023-04-18T05:42:53.402Z,10.20
2023-04-18T05:45:22.484Z,9.80
2023-04-18T05:47:50.160Z,9.88
2023-04-18T05:50:17.677Z,9.88
2023-04-18T05:52:45.671Z,8.43
2023-04-18T05:55:13.250Z,10.52
2023-04-18T05:57:41.476Z,10.77
2023-04-18T06:00:12.290Z,13.23
2023-04-18T06:02:44.861Z,10.32
2023-04-18T06:05:13.043Z,9.57
2023-04-18T06:07:40.628Z,10.35
2023-04-18T06:10:11.045Z,9.68
2023-04-18T06:12:38.450Z,9.50
2023-04-18T06:15:06.475Z,8.75
2023-04-18T06:20:03.814Z,9.15
2023-04-18T06:22:31.177Z,9.48
2023-04-18T06:24:58.781Z,9.98
2023-04-18T06:27:31.369Z,9.52
2023-04-18T06:29:59.467Z,11.02
2023-04-18T06:32:27.021Z,9.88
2023-04-18T06:34:54.572Z,10.95
2023-04-18T06:37:26.138Z,10.38
2023-04-18T06:39:53.880Z,11.50
2023-04-18T06:42:22.483Z,11.40
2023-04-18T06:44:50.378Z,11.77
2023-04-18T06:47:17.872Z,12.18
2023-04-18T06:49:50.401Z,12.77
2023-04-18T06:52:17.857Z,13.43
2023-04-18T06:54:46.814Z,12.50
2023-04-18T06:57:14.276Z,13.68
2023-04-18T06:59:42.247Z,14.00
2023-04-18T07:02:09.740Z,14.10
2023-04-18T07:04:37.340Z,14.18
2023-04-18T07:07:08.009Z,13.55
2023-04-18T07:09:38.284Z,13.88
2023-04-18T07:12:10.306Z,15.10
2023-04-18T07:14:40.557Z,14.95
2023-04-18T07:17:11.261Z,13.57
2023-04-18T07:19:45.385Z,13.10
2023-04-18T07:22:12.835Z,13.35
2023-04-18T07:24:40.261Z,13.27
2023-04-18T07:27:09.366Z,13.68
2023-04-18T07:29:40.713Z,14.05
2023-04-18T07:32:10.534Z,14.68
2023-04-18T07:34:40.146Z,14.93
2023-04-18T07:37:21.265Z,15.20
2023-04-18T07:39:51.273Z,14.70
2023-04-18T07:42:18.763Z,13.90
2023-04-18T07:49:44.281Z,15.43
2023-04-18T07:52:15.878Z,12.40
2023-04-18T07:54:43.342Z,13.20
2023-04-18T07:57:10.821Z,14.20
2023-04-18T07:59:39.740Z,12.52
2023-04-18T08:02:07.272Z,13.65
2023-04-18T08:04:35.085Z,12.48
2023-04-18T08:07:04.102Z,13.27
2023-04-18T08:09:31.642Z,12.85
2023-04-18T08:12:00.285Z,12.20
2023-04-18T08:14:27.820Z,12.10
2023-04-18T08:16:55.276Z,12.75
2023-04-18T08:19:24.149Z,12.73
2023-04-18T08:21:55.298Z,12.75
2023-04-18T08:24:24.327Z,11.68
2023-04-18T08:26:51.770Z,14.30
2023-04-18T08:29:19.150Z,12.00
2023-04-18T08:31:49.088Z,13.60
2023-04-18T08:34:16.546Z,12.63
2023-04-18T08:36:44.113Z,11.77
2023-04-18T08:39:11.820Z,13.02
2023-04-18T08:41:43.102Z,12.35
2023-04-18T08:44:10.892Z,13.43
2023-04-18T08:46:38.398Z,12.73
2023-04-18T08:49:12.152Z,14.20
2023-04-18T08:51:41.450Z,13.25
2023-04-18T08:54:13.987Z,11.77
2023-04-18T08:56:42.720Z,13.15
2023-04-18T08:59:11.541Z,13.70
2023-04-18T09:01:52.996Z,13.40
2023-04-18T09:04:34.409Z,14.57
2023-04-18T09:07:02.034Z,13.55
2023-04-18T09:09:53.405Z,15.35
2023-04-18T09:12:23.454Z,14.95
2023-04-18T09:14:59.278Z,13.43
2023-04-18T09:17:33.942Z,14.55
2023-04-18T09:20:09.769Z,14.30
2023-04-18T09:22:47.118Z,14.00
2023-04-18T09:25:27.357Z,12.85
2023-04-18T09:27:57.211Z,12.93
2023-04-18T09:30:36.982Z,14.10
2023-04-18T09:33:09.479Z,13.73
2023-04-18T09:35:37.679Z,13.63
2023-04-18T09:38:13.165Z,13.48
2023-04-18T09:40:43.264Z,13.05
2023-04-18T09:43:20.408Z,13.32
2023-04-18T09:45:48.226Z,13.60
2023-04-18T09:48:15.772Z,14.13
2023-04-18T09:50:43.522Z,13.52
2023-04-18T09:53:15.155Z,12.88
2023-04-18T09:55:46.360Z,13.75
2023-04-18T09:58:14.789Z,13.23
2023-04-18T10:00:46.925Z,13.35
2023-04-18T10:03:15.869Z,13.02
2023-04-18T10:05:45.789Z,13.48
2023-04-18T10:08:13.790Z,14.82
2023-04-18T10:10:41.557Z,13.07
2023-04-18T10:13:11.133Z,13.68
2023-04-18T10:15:43.609Z,14.27
2023-04-18T10:18:15.660Z,14.00
2023-04-18T10:20:44.578Z,14.32
2023-04-18T10:23:48.682Z,12.65
2023-04-18T10:26:16.147Z,14.88
2023-04-18T10:28:54.326Z,13.50
2023-04-18T10:31:22.422Z,13.55
2023-04-18T10:34:03.966Z,13.52
2023-04-18T10:36:33.227Z,13.75
2023-04-18T10:39:02.918Z,14.57
2023-04-18T10:41:31.470Z,14.55
2023-04-18T10:44:24.171Z,13.82
2023-04-18T10:47:13.485Z,13.93
2023-04-18T10:49:56.026Z,14.32
2023-04-18T10:52:23.504Z,16.00
2023-04-18T10:54:55.205Z,14.23
2023-04-18T10:57:25.144Z,14.00
2023-04-18T10:59:56.917Z,15.32
2023-04-18T11:02:26.228Z,15.52
2023-04-18T11:04:56.135Z,15.35
2023-04-18T11:07:32.819Z,15.77
2023-04-18T11:10:00.589Z,14.90
2023-04-18T11:12:30.741Z,15.63
2023-04-18T11:14:58.915Z,15.18
2023-04-18T11:17:27.044Z,15.13
2023-04-18T11:20:02.559Z,16.00
2023-04-18T11:22:30.998Z,16.77
2023-04-18T11:25:17.205Z,14.85
2023-04-18T11:27:47.980Z,15.63
2023-04-18T11:30:16.166Z,15.93
2023-04-18T11:32:43.745Z,15.13
2023-04-18T11:35:13.513Z,15.40
2023-04-18T11:37:41.830Z,15.65
2023-04-18T11:40:11.786Z,15.25
2023-04-18T11:42:39.955Z,14.23
2023-04-18T11:45:10.408Z,15.07
2023-04-18T11:47:37.890Z,14.55
2023-04-18T11:50:06.610Z,14.50
2023-04-18T11:52:36.289Z,15.75
2023-04-18T11:55:12.934Z,14.50
2023-04-18T11:57:40.813Z,14.70
2023-04-18T12:02:41.525Z,15.32
2023-04-18T12:05:09.603Z,15.57
2023-04-18T12:07:39.853Z,16.35
2023-04-18T12:10:08.187Z,16.20
2023-04-18T12:12:36.153Z,16.52
2023-04-18T12:17:31.763Z,15.80
2023-04-18T12:20:02.735Z,16.73
2023-04-18T12:22:44.676Z,15.13
2023-04-18T12:25:20.128Z,14.50
2023-04-18T12:27:48.188Z,14.07
2023-04-18T12:32:44.832Z,13.75
2023-04-18T12:35:12.403Z,14.32
2023-04-18T12:37:39.789Z,14.38
2023-04-18T12:40:11.833Z,14.57
2023-04-18T12:42:39.234Z,13.43
2023-04-18T12:45:08.509Z,13.32
2023-04-18T12:47:37.311Z,14.38
2023-04-18T12:50:05.032Z,14.70
2023-04-18T12:52:32.625Z,16.02
2023-04-18T12:55:00.038Z,14.70
2023-04-18T12:57:31.610Z,14.65
2023-04-18T12:59:59.241Z,14.13
2023-04-18T13:02:29.336Z,14.63
2023-04-18T13:04:57.134Z,14.43
2023-04-18T13:07:24.768Z,14.13
2023-04-18T13:09:52.187Z,14.07
2023-04-18T13:12:21.945Z,14.30
2023-04-18T13:14:52.211Z,14.52
2023-04-18T13:17:19.648Z,13.77
2023-04-18T13:19:53.852Z,13.10
2023-04-18T13:22:21.825Z,13.73
2023-04-18T13:27:16.811Z,13.88
2023-04-18T13:29:45.582Z,13.63
2023-04-18T13:32:19.905Z,14.48
2023-04-18T13:34:48.453Z,14.60
2023-04-18T13:37:16.103Z,13.05
2023-04-18T13:39:46.236Z,13.15
2023-04-18T13:42:16.468Z,12.05
2023-04-18T13:44:44.183Z,12.80
2023-04-18T13:52:07.913Z,12.52
2023-04-18T13:54:37.739Z,11.18
2023-04-18T13:57:11.415Z,11.10
2023-04-18T13:59:40.408Z,11.73
2023-04-18T14:02:09.890Z,11.45
2023-04-18T14:04:37.753Z,12.65
2023-04-18T14:07:06.148Z,11.70
2023-04-18T14:09:37.408Z,12.23
2023-04-18T14:12:09.420Z,13.10
2023-04-18T14:14:37.152Z,13.55
2023-04-18T14:19:35.761Z,12.07
2023-04-18T14:22:03.202Z,11.25
2023-04-18T14:24:30.610Z,11.90
2023-04-18T14:26:59.648Z,12.50
2023-04-18T14:29:27.026Z,12.15
2023-04-18T14:31:54.419Z,12.48
2023-04-18T14:34:21.763Z,11.65
2023-04-18T14:36:49.272Z,11.82
2023-04-18T14:39:16.640Z,12.13
2023-04-18T14:41:45.711Z,11.32
2023-04-18T14:44:14.445Z,12.15
2023-04-18T14:46:43.031Z,11.75
2023-04-18T14:49:10.453Z,10.35
2023-04-18T14:51:37.889Z,10.25
2023-04-18T14:54:05.443Z,10.73
2023-04-18T14:56:32.831Z,10.90
2023-04-18T14:59:00.362Z,11.00
2023-04-18T15:01:29.166Z,11.43
2023-04-18T15:03:56.681Z,11.15
2023-04-18T15:06:24.155Z,12.23
2023-04-18T15:08:52.999Z,12.95
2023-04-18T15:11:20.392Z,12.55
2023-04-18T15:13:48.266Z,12.88
2023-04-18T15:18:47.133Z,13.30
2023-04-18T15:21:14.554Z,12.65
2023-04-18T15:23:41.927Z,12.10
2023-04-18T15:26:09.300Z,12.10
2023-04-18T15:28:36.672Z,11.90
2023-04-18T15:31:04.117Z,11.48
2023-04-18T15:33:31.525Z,11.43
2023-04-18T15:36:00.256Z,12.70
2023-04-18T15:38:27.722Z,11.27
2023-04-18T15:40:55.118Z,12.40
2023-04-18T15:43:22.570Z,10.40
2023-04-18T15:45:50.849Z,11.65
2023-04-18T15:48:18.273Z,10.70
2023-04-18T15:50:50.050Z,10.40
2023-04-18T15:53:18.849Z,10.20
2023-04-18T15:55:46.925Z,12.75
2023-04-18T15:58:14.365Z,10.70
2023-04-18T16:00:41.780Z,10.93
2023-04-18T16:03:10.479Z,11.13
2023-04-18T16:05:37.979Z,10.63
2023-04-18T16:08:05.438Z,11.65
2023-04-18T16:10:34.226Z,11.63
2023-04-18T16:13:02.275Z,12.50
2023-04-18T16:15:31.163Z,12.15
2023-04-18T16:17:59.045Z,12.10
2023-04-18T16:22:54.667Z,11.15
2023-04-18T16:25:22.067Z,11.15
2023-04-18T16:27:50.813Z,11.18
2023-04-18T16:30:18.240Z,11.75
2023-04-18T16:32:45.713Z,12.48
2023-04-18T16:35:13.264Z,11.77
2023-04-18T16:37:41.278Z,12.07
2023-04-18T16:40:09.786Z,11.05
2023-04-18T16:42:37.639Z,11.85
2023-04-18T16:47:33.870Z,11.18
2023-04-18T16:50:01.251Z,11.68
2023-04-18T16:52:28.782Z,11.75
2023-04-18T16:54:56.316Z,16.45
2023-04-18T16:57:23.679Z,13.40
2023-04-18T16:59:51.090Z,11.82
2023-04-18T17:02:18.713Z,11.77
2023-04-18T17:04:48.013Z,13.15
2023-04-18T17:07:15.463Z,11.80
2023-04-18T17:09:42.861Z,12.07
2023-04-18T17:12:10.248Z,12.07
2023-04-18T17:14:38.002Z,12.65
2023-04-18T17:17:05.457Z,11.95
2023-04-18T17:19:32.843Z,19.75
2023-04-18T17:22:01.823Z,13.30
2023-04-18T17:24:29.234Z,12.20
2023-04-18T17:26:57.848Z,12.23
2023-04-18T17:29:26.534Z,17.75
2023-04-18T17:31:54.076Z,14.05
2023-04-18T17:34:21.546Z,11.93
2023-04-18T17:36:48.929Z,11.98
2023-04-18T17:39:17.655Z,12.23
2023-04-18T17:41:45.825Z,11.73
2023-04-18T17:44:13.215Z,11.88
2023-04-18T17:46:40.894Z,12.40
2023-04-18T17:49:08.294Z,12.07
2023-04-18T17:51:35.750Z,12.30
2023-04-18T17:54:04.994Z,11.93
2023-04-18T17:56:33.755Z,14.63
2023-04-18T17:59:01.167Z,13.27
2023-04-18T18:01:30.183Z,12.90
2023-04-18T18:03:57.706Z,12.90
2023-04-18T18:06:27.740Z,11.98
2023-04-18T18:08:55.853Z,12.07
2023-04-18T18:11:23.721Z,12.38
2023-04-18T18:16:23.845Z,12.60
2023-04-18T18:18:51.490Z,10.90
2023-04-18T18:21:19.190Z,12.23
2023-04-18T18:23:46.843Z,12.45
2023-04-18T18:26:14.419Z,11.90
2023-04-18T18:28:41.825Z,11.68
2023-04-18T18:31:09.245Z,12.05
2023-04-18T18:33:38.034Z,11.88
2023-04-18T18:36:06.683Z,11.20
2023-04-18T18:38:34.181Z,11.80
2023-04-18T18:41:03.736Z,11.30
2023-04-18T18:43:31.511Z,12.85
2023-04-18T18:45:58.931Z,11.45
2023-04-18T18:48:27.787Z,11.50
2023-04-18T18:50:57.157Z,11.52
2023-04-18T18:53:24.577Z,11.88
2023-04-18T18:55:51.975Z,10.80
2023-04-18T18:58:19.395Z,12.13
2023-04-18T19:00:47.025Z,12.25
2023-04-18T19:03:15.671Z,12.10
2023-04-18T19:05:43.091Z,11.43
2023-04-18T19:08:11.861Z,11.57
2023-04-18T19:10:39.371Z,11.93
2023-04-18T19:13:06.816Z,10.95
2023-04-18T19:15:34.281Z,11.98
2023-04-18T19:18:01.755Z,12.50
2023-04-18T19:20:29.363Z,11.75
2023-04-18T19:22:56.784Z,11.80
2023-04-18T19:25:25.828Z,11.90
2023-04-18T19:27:53.236Z,12.25
2023-04-18T19:30:20.654Z,12.15
2023-04-18T19:32:48.109Z,12.27
2023-04-18T19:35:15.612Z,11.93
2023-04-18T19:37:43.959Z,11.95
2023-04-18T19:40:11.820Z,11.85
2023-04-18T19:45:08.716Z,12.05
2023-04-18T19:47:36.752Z,13.00
2023-04-18T19:50:04.218Z,12.02
2023-04-18T19:52:31.627Z,10.95
2023-04-18T19:54:59.001Z,11.50
2023-04-18T19:57:27.600Z,11.88
2023-04-18T19:59:55.168Z,12.85
2023-04-18T20:02:24.101Z,12.43
2023-04-18T20:04:51.811Z,12.50
2023-04-18T20:07:19.664Z,12.77
2023-04-18T20:12:14.597Z,11.90
2023-04-18T20:14:41.994Z,13.13
2023-04-18T20:17:09.384Z,12.77
2023-04-18T20:19:38.103Z,12.80
2023-04-18T20:22:05.846Z,12.70
2023-04-18T20:27:02.862Z,13.00
2023-04-18T20:29:30.260Z,12.55
2023-04-18T20:31:57.699Z,13.63
2023-04-18T20:34:25.133Z,12.27
2023-04-18T20:36:53.868Z,13.90
2023-04-18T20:39:21.260Z,12.77
2023-04-18T20:41:51.100Z,12.57
2023-04-18T20:44:20.878Z,13.00
2023-04-18T20:46:48.265Z,13.43
2023-04-18T20:49:16.098Z,12.85
2023-04-18T20:54:12.360Z,11.95
2023-04-18T20:56:39.871Z,12.57
2023-04-18T20:59:07.268Z,13.75
2023-04-18T21:01:36.747Z,13.00
2023-04-18T21:04:05.040Z,13.18
2023-04-18T21:06:32.691Z,12.70
2023-04-18T21:09:00.139Z,12.55
2023-04-18T21:11:28.932Z,13.18
2023-04-18T21:13:56.330Z,13.77
2023-04-18T21:16:24.026Z,13.15
2023-04-18T21:18:51.514Z,13.18
2023-04-18T21:21:18.898Z,12.85
2023-04-18T21:23:46.312Z,12.90
2023-04-18T21:26:13.898Z,14.23
2023-04-18T21:28:58.570Z,12.75
2023-04-18T21:31:26.975Z,12.18
2023-04-18T21:33:54.801Z,13.63
2023-04-18T21:36:22.273Z,13.63
2023-04-18T21:38:52.046Z,13.07
2023-04-18T21:41:19.562Z,13.15
2023-04-18T21:43:46.978Z,12.82
2023-04-18T21:46:16.155Z,13.88
2023-04-18T21:48:44.683Z,14.05
2023-04-18T21:51:12.732Z,13.63
2023-04-18T21:53:40.541Z,13.45
2023-04-18T21:58:35.493Z,13.55
2023-04-18T22:01:03.111Z,14.35
2023-04-18T22:03:33.229Z,13.60
2023-04-18T22:06:01.721Z,15.13
2023-04-18T22:08:29.481Z,14.75
2023-04-18T22:10:57.738Z,15.40
2023-04-18T22:13:25.949Z,14.07
2023-04-18T22:15:53.344Z,14.27
2023-04-18T22:18:21.841Z,15.32
2023-04-18T22:20:50.812Z,14.85
2023-04-18T22:23:18.209Z,14.13
2023-04-18T22:25:45.747Z,15.02
2023-04-18T22:28:13.126Z,14.48
2023-04-18T22:30:40.838Z,15.02
2023-04-18T22:33:08.339Z,15.10
2023-04-18T22:35:35.874Z,13.40
2023-04-18T22:38:04.605Z,15.32
2023-04-18T22:40:32.215Z,14.55
2023-04-18T22:42:59.613Z,12.85
2023-04-18T22:45:27.113Z,15.18
2023-04-18T22:47:54.555Z,14.65
2023-04-18T22:50:22.087Z,14.60
2023-04-18T22:52:50.524Z,14.95
2023-04-18T22:55:20.075Z,14.18
2023-04-18T22:57:47.454Z,14.77
2023-04-18T23:00:15.312Z,14.85
2023-04-18T23:02:42.846Z,14.60
2023-04-18T23:05:10.722Z,15.15
2023-04-18T23:07:38.152Z,14.63
2023-04-18T23:10:06.867Z,15.93
2023-04-18T23:12:35.623Z,15.18
2023-04-18T23:15:03.098Z,14.40
2023-04-18T23:17:30.478Z,15.65
2023-04-18T23:19:57.962Z,15.30
2023-04-18T23:22:25.538Z,15.30
2023-04-18T23:24:52.972Z,16.95
2023-04-18T23:27:20.485Z,15.50
2023-04-18T23:29:49.331Z,15.40
2023-04-18T23:32:16.790Z,14.50
2023-04-18T23:34:45.748Z,15.75
2023-04-18T23:37:13.186Z,15.27
2023-04-18T23:39:40.869Z,14.85
2023-04-18T23:42:08.310Z,15.63
2023-04-18T23:44:35.734Z,15.23
2023-04-18T23:47:04.547Z,13.88
2023-04-18T23:49:32.082Z,15.25
2023-04-18T23:51:59.481Z,14.70
2023-04-18T23:54:26.878Z,14.95
2023-04-18T23:56:54.277Z,14.63
2023-04-18T23:59:21.726Z,15.82
